Blue Oak Ranch Reserve, California Weather observations

Data are for 10 minute period ending at time listed.
 Day   Time   Solar   Ave.   Ave.  Ave.  Vector  Max.   Baro.   Total    
  of    of     Rad.   Air    Rel.  Wind   Wind   Wind  Press.  Precip.   
Year   Day            Temp.  Hum.  Speed  Dir.   Gust                    
2017   (PST)  Kw/m2    F      %     mph   deg.    mph    mb.     in.     
-------------------------------------------------------------------------
  84   14:40   0.39   55.0    63    8.4   314    13.8   951.6    0.00 
  84   14:50   0.57   55.2    66    9.8   304    15.2   951.6    0.00 
  84   15:00   0.77   57.5    63    9.1   290    15.1   951.6    0.00 
  84   15:10   0.63   57.2    59    6.6   312    11.6   951.6    0.00 
  84   15:20   0.60   57.4    55    6.4   272    11.3   951.5    0.00 
  84   15:30   0.42   57.3    56    7.7   289    13.9   951.5    0.00 
  84   15:40   0.54   56.9    54    6.0   290    10.7   951.5    0.00 
  84   15:50   0.50   58.0    53    7.3   270    12.2   951.3    0.00 
  84   16:00   0.41   57.1    56    7.8   286    11.5   951.2    0.00 
  84   16:10   0.48   57.6    56    7.6   283    12.4   951.2    0.00 
  84   16:20   0.41   56.2    55    6.7   315    12.1   951.1    0.00 
  84   16:30   0.35   56.1    55    8.7   285    11.8   951.1    0.00 
  84   16:40   0.34   56.3    55    6.6   283    10.6   951.2    0.00 
  84   16:50   0.29   56.8    55    6.4   270    12.2   951.1    0.00 
  84   17:00   0.26   56.1    58    6.2   284    10.4   951.1    0.00 
  84   17:10   0.17   55.7    57    5.9   280     9.8   951.0    0.00 
  84   17:20   0.15   54.9    58    5.8   284     8.9   950.9    0.00 
  84   17:30   0.12   54.2    61    6.9   285    10.2   951.1    0.00 
  84   17:40   0.09   53.8    62    5.5   280     9.0   951.1    0.00 
  84   17:50   0.05   52.3    68    4.7   285     7.9   951.1    0.00 
  84   18:00   0.04   50.8    72    4.9   297     7.6   951.1    0.00 
  84   18:10   0.03   49.9    76    5.7   303     7.8   951.2    0.00 
  84   18:20   0.01   49.3    78    4.1   308     5.8   951.2    0.00 
  84   18:30   0.01   48.5    80    2.3   324     3.9   951.4    0.00 
  84   18:40   0.00   47.4    83    2.4   324     4.6   951.5    0.00 
  84   18:50   0.00   46.9    83    1.7   342     4.3   951.6    0.00 
  84   19:00   0.00   45.1    87    1.1    74     2.1   951.7    0.00 
  84   19:10   0.00   44.3    89    1.1    52     2.1   951.8    0.00 
  84   19:20   0.00   43.7    90    0.2   292     1.5   951.9    0.00 
  84   19:30   0.00   43.2    91    0.5   330     1.5   951.7    0.00 
  84   19:40   0.00   42.6    92    1.0    52     2.4   951.6    0.00 
  84   19:50   0.00   42.1    92    1.2    36     2.1   951.7    0.00 
  84   20:00   0.00   41.9    92    0.4   270     1.3   952.0    0.00 
  84   20:10   0.00   41.6    93    1.3   298     3.1   952.1    0.00 
  84   20:20   0.00   41.3    94    1.0     5     2.5   952.1    0.00 
  84   20:30   0.00   41.1    93    1.4    61     2.2   952.1    0.00 
  84   20:40   0.00   40.5    94    0.8   304     2.0   952.1    0.00 
  84   20:50   0.00   40.3    94    0.1   338     1.2   952.1    0.00 
  84   21:00   0.00   39.9    94    0.3    49     1.2   952.2    0.00 
  84   21:10   0.00   39.6    94    0.5    38     1.8   952.1    0.00 
  84   21:20   0.00   39.7    95    0.6   305     1.5   951.9    0.00 
  84   21:30   0.00   39.5    95    1.7   300     2.7   951.9    0.00 
  84   21:40   0.00   39.2    95    0.2   298     1.5   951.8    0.00 
  84   21:50   0.00   39.1    95    1.3    55     1.8   951.6    0.00 
  84   22:00   0.00   38.8    95    1.1   289     2.6   951.6    0.00 
  84   22:10   0.00   38.7    95    0.2   291     1.8   951.5    0.00 
  84   22:20   0.00   38.8    96    0.4   293     2.0   951.5    0.00 
  84   22:30   0.00   38.5    96    0.6   302     1.7   951.4    0.00 
  84   22:40   0.00   38.4    96    0.3    40     1.0   951.5    0.00 
  84   22:50   0.00   38.0    96    1.1    51     1.6   951.4    0.00 
  84   23:00   0.00   37.9    96    1.5    67     3.5   951.2    0.00 
  84   23:10   0.00   37.6    96    1.4   302     2.3   951.1    0.00 
  84   23:20   0.00   37.5    96    1.7   298     3.9   951.2    0.00 
  84   23:30   0.00   38.2    96    0.7   300     1.8   951.3    0.00 
  84   23:40   0.00   38.0    96    1.1   286     2.6   951.3    0.00 
  84   23:50   0.00   38.0    96    0.9   294     2.7   951.2    0.00 
  85    0:00   0.00   38.0    96    1.7   289     2.5   951.2    0.00 
  85    0:10   0.00   38.1    96    1.4    11     2.2   951.2    0.00 
  85    0:20   0.00   38.6    96    1.3   287     2.6   951.2    0.00 
  85    0:30   0.00   38.3    96    0.9   314     2.3   951.2    0.00 
  85    0:40   0.00   38.5    96    0.1     2     0.9   951.1    0.00 
  85    0:50   0.00   38.7    96    0.5    12     1.5   951.1    0.00 
  85    1:00   0.00   38.8    96    1.6   289     2.9   951.1    0.00 
  85    1:10   0.00   38.6    96    1.0   355     3.0   951.2    0.00 
  85    1:20   0.00   38.7    96    0.5    51     1.8   951.2    0.00 
  85    1:30   0.00   38.8    96    1.4    59     2.6   951.1    0.00 
  85    1:40   0.00   38.8    96    1.4   298     2.5   951.0    0.00 
  85    1:50   0.00   39.4    96    0.3   294     2.1   950.9    0.00 
  85    2:00   0.00   39.7    96    1.0   282     2.9   950.8    0.00 
  85    2:10   0.00   39.6    96    1.4   298     3.1   950.9    0.00 
  85    2:20   0.00   39.6    96    1.7    60     3.3   950.9    0.00 
  85    2:30   0.00   39.7    96    0.0    22     0.8   950.8    0.00 
  85    2:40   0.00   39.7    96    1.0   301     2.1   950.8    0.00 
  85    2:50   0.00   39.7    96    0.7    73     1.3   950.6    0.00 
  85    3:00   0.00   39.8    96    0.2   324     1.3   950.5    0.00 
  85    3:10   0.00   39.7    96    1.0   281     2.3   950.3    0.00 
  85    3:20   0.00   39.8    96    0.3   299     2.0   950.2    0.00 
  85    3:30   0.00   39.9    96    1.0   289     2.2   950.0    0.00 
  85    3:40   0.00   40.0    96    0.3   293     1.9   949.9    0.00 
  85    3:50   0.00   40.2    96    0.7   289     2.1   949.9    0.00 
  85    4:00   0.00   40.4    96    0.4    61     1.6   949.9    0.00 
  85    4:10   0.00   40.6    96    0.5    78     1.7   949.8    0.00 
  85    4:20   0.00   40.8    96    0.0     0     0.0   949.8    0.00 
  85    4:30   0.00   41.1    96    0.6    28     1.9   949.6    0.00 
  85    4:40   0.00   41.2    96    0.1   309     1.2   949.6    0.00 
  85    4:50   0.00   41.4    96    1.4   294     2.6   949.8    0.00 
  85    5:00   0.00   41.6    96    0.5   298     1.7   949.8    0.00 
  85    5:10   0.00   41.7    95    2.8   289     3.9   949.9    0.00 
  85    5:20   0.00   41.7    95    0.1   304     1.2   950.0    0.00 
  85    5:30   0.00   41.8    95    0.8    75     2.5   950.2    0.00 
  85    5:40   0.00   42.1    95    1.3    65     3.1   950.1    0.00 
  85    5:50   0.00   42.1    95    0.8   309     2.9   950.3    0.00 
  85    6:00   0.00   42.2    95    0.9   307     1.4   950.3    0.00 
  85    6:10   0.01   42.3    94    1.5   283     2.3   950.4    0.00 
  85    6:20   0.02   42.5    94    1.1   296     2.4   950.5    0.00 
  85    6:30   0.03   42.6    94    0.0     0     0.0   950.7    0.00 
  85    6:40   0.03   42.8    94    0.0    56     0.5   950.9    0.00 
  85    6:50   0.04   43.2    94    0.4    44     2.0   951.0    0.00 
  85    7:00   0.04   43.4    94    0.6    94     2.1   950.9    0.00 
  85    7:10   0.06   43.8    94    0.6   170     1.5   950.8    0.00 
  85    7:20   0.09   44.5    94    0.3   204     1.8   950.7    0.00 
  85    7:30   0.10   45.1    92    2.4   106     4.0   950.5    0.00 
  85    7:40   0.13   45.6    87    1.7   121     3.6   950.6    0.00 
  85    7:50   0.09   46.3    85    1.4   184     2.8   950.6    0.00 
  85    8:00   0.09   46.6    84    1.8   196     2.8   950.9    0.00 
  85    8:10   0.11   46.9    85    1.5   159     2.6   951.1    0.00 
  85    8:20   0.17   47.6    83    2.9   252     5.4   951.4    0.00 
  85    8:30   0.16   47.9    82    2.9   249     5.6   951.6    0.00 
  85    8:40   0.21   47.7    82    1.4   203     3.0   951.6    0.00 
  85    8:50   0.34   48.8    79    1.0   194     2.6   951.5    0.00 
  85    9:00   0.31   50.1    76    1.2   208     2.6   951.6    0.00 
  85    9:10   0.22   50.3    72    0.9   284     2.3   951.4    0.00 
  85    9:20   0.20   50.7    70    0.7   182     2.9   951.3    0.00 
  85    9:30   0.27   50.1    71    1.7   150     3.6   951.2    0.00 
  85    9:40   0.39   51.7    67    1.0   233     3.4   951.4    0.00 
  85    9:50   0.39   53.3    70    5.6   265    10.5   951.5    0.00 
  85   10:00   0.36   52.0    74    5.2   254     8.6   951.7    0.00 
  85   10:10   0.40   51.5    75    5.4   235     8.4   951.7    0.00 
  85   10:20   0.44   52.2    68    2.6   237     4.9   951.6    0.00 
  85   10:30   0.49   52.6    70    2.8   179     5.6   951.4    0.00 
  85   10:40   0.55   53.9    67    2.2   234     4.3   951.3    0.00 
  85   10:50   0.60   53.5    64    3.7   152     6.9   951.3    0.00 
  85   11:00   0.54   53.7    58    3.1   133     7.4   951.3    0.00 
  85   11:10   0.60   55.2    57    3.3   167     7.4   951.2    0.00 
  85   11:20   0.48   56.1    52    3.5   238     6.1   951.2    0.00 
  85   11:30   0.57   57.0    47    1.5   224     4.1   951.1    0.00 
  85   11:40   0.62   58.0    46    3.1   224     7.5   951.1    0.00 
  85   11:50   0.60   58.1    51    4.6   256     8.3   951.2    0.00 
  85   12:00   0.53   57.9    54    5.0   255     8.0   951.3    0.00 
  85   12:10   0.43   57.0    52    6.2   272     9.3   951.4    0.00 
  85   12:20   0.38   56.3    52    6.7   265    10.6   951.5    0.00 
  85   12:30   0.36   56.2    51    3.3   261     8.0   951.4    0.00 
  85   12:40   0.33   56.5    50    3.3   250     6.4   951.4    0.00 
  85   12:50   0.32   55.5    50    2.5   208     6.5   951.4    0.00 
  85   13:00   0.31   55.7    52    2.8   212     5.9   951.2    0.00 
  85   13:10   0.33   55.5    56    3.2   212     6.3   951.2    0.00 
  85   13:20   0.30   55.4    59    1.8   203     6.6   951.2    0.00 
  85   13:30   0.20   54.8    59    2.0   154     4.1   951.1    0.00 
  85   13:40   0.18   54.5    60    3.4   240     8.5   951.1    0.00 
  85   13:50   0.22   54.5    60    3.0   190     5.8   950.9    0.00 
  85   14:00   0.30   54.4    60    4.0   141     7.9   950.8    0.00 
  85   14:10   0.30   54.6    61    3.2   166     5.8   950.7    0.00 
  85   14:20   0.29   55.4    60    1.8   116     5.8   950.6    0.00 
  85   14:30   0.31   55.3    60    3.8   155     8.1   950.6    0.00 

Return to Blue Oak Ranch Reserve graphs page.


Western Regional Climate Center,wrcc@dri.edu